createdAt,value
2018-05-27T00:01:15.658Z,17.08
2018-05-27T00:07:20.773Z,17.07
2018-05-27T00:13:25.846Z,17.02
2018-05-27T00:19:30.353Z,16.93
2018-05-27T00:25:34.698Z,16.78
2018-05-27T00:31:39.041Z,16.80
2018-05-27T00:37:43.396Z,16.68
2018-05-27T00:43:47.749Z,16.63
2018-05-27T00:49:52.145Z,16.61
2018-05-27T00:55:57.226Z,16.51
2018-05-27T01:02:01.616Z,16.31
2018-05-27T01:08:05.965Z,16.42
2018-05-27T01:14:10.463Z,16.45
2018-05-27T01:20:14.800Z,16.43
2018-05-27T01:26:19.180Z,16.37
2018-05-27T01:32:24.279Z,16.43
2018-05-27T01:38:28.595Z,16.18
2018-05-27T01:44:33.763Z,16.15
2018-05-27T01:50:38.182Z,16.38
2018-05-27T01:56:42.520Z,16.09
2018-05-27T02:02:46.860Z,15.88
2018-05-27T02:08:51.320Z,15.89
2018-05-27T02:14:55.721Z,15.90
2018-05-27T02:21:00.136Z,15.69
2018-05-27T02:27:04.509Z,15.52
2018-05-27T02:33:08.859Z,15.48
2018-05-27T02:39:13.204Z,15.30
2018-05-27T02:45:18.547Z,15.09
2018-05-27T02:51:23.531Z,15.03
2018-05-27T02:57:27.868Z,15.08
2018-05-27T03:03:32.954Z,15.20
2018-05-27T03:09:37.474Z,14.77
2018-05-27T03:15:41.804Z,14.79
2018-05-27T03:21:47.085Z,14.98
2018-05-27T03:27:52.308Z,14.72
2018-05-27T03:33:56.696Z,14.78
2018-05-27T03:40:01.049Z,14.71
2018-05-27T03:46:06.151Z,14.78
2018-05-27T03:52:11.256Z,14.94
2018-05-27T03:58:15.596Z,14.98
2018-05-27T04:04:37.541Z,14.97
2018-05-27T04:10:41.977Z,15.06
2018-05-27T04:16:47.104Z,14.94
2018-05-27T04:22:51.489Z,15.00
2018-05-27T04:28:56.735Z,15.25
2018-05-27T04:35:01.853Z,15.50
2018-05-27T04:41:06.194Z,15.86
2018-05-27T04:47:10.543Z,15.79
2018-05-27T04:53:14.881Z,16.07
2018-05-27T04:59:19.830Z,15.91
2018-05-27T05:05:24.513Z,16.16
2018-05-27T05:11:29.637Z,16.54
2018-05-27T05:17:34.044Z,16.59
2018-05-27T05:23:38.364Z,16.85
2018-05-27T05:29:42.757Z,17.29
2018-05-27T05:35:47.099Z,17.66
2018-05-27T05:41:51.625Z,17.73
2018-05-27T05:47:56.109Z,18.06
2018-05-27T05:54:00.451Z,18.45
2018-05-27T06:00:04.861Z,18.63
2018-05-27T06:06:09.217Z,19.08
2018-05-27T06:12:13.565Z,19.39
2018-05-27T06:18:18.669Z,19.66
2018-05-27T06:24:23.013Z,20.05
2018-05-27T06:30:27.372Z,20.17
2018-05-27T06:36:31.731Z,20.25
2018-05-27T06:42:36.073Z,20.76
2018-05-27T06:48:40.453Z,21.16
2018-05-27T06:54:44.824Z,21.07
2018-05-27T07:00:49.891Z,21.43
2018-05-27T07:06:54.373Z,22.17
2018-05-27T07:12:58.729Z,22.81
2018-05-27T07:19:03.116Z,23.25
2018-05-27T07:25:07.455Z,23.51
2018-05-27T07:31:11.812Z,23.61
2018-05-27T07:37:16.174Z,24.18
2018-05-27T07:43:20.667Z,24.59
2018-05-27T07:49:25.084Z,25.16
2018-05-27T07:55:29.432Z,25.23
2018-05-27T08:01:33.784Z,25.62
2018-05-27T08:07:38.143Z,26.36
2018-05-27T08:13:42.528Z,26.28
2018-05-27T08:19:46.958Z,26.80
2018-05-27T08:25:51.764Z,26.78
2018-05-27T08:31:56.995Z,26.96
2018-05-27T08:38:01.339Z,27.25
2018-05-27T08:44:05.653Z,27.48
2018-05-27T08:50:10.038Z,28.06
2018-05-27T08:56:14.388Z,28.40
2018-05-27T09:02:19.812Z,28.52
2018-05-27T09:08:25.067Z,29.29
2018-05-27T09:14:29.422Z,29.30
2018-05-27T09:20:34.616Z,29.31
2018-05-27T09:26:39.797Z,29.41
2018-05-27T09:32:45.003Z,29.94
2018-05-27T09:38:50.294Z,29.48
2018-05-27T09:44:54.792Z,30.02
2018-05-27T09:50:59.226Z,30.43
2018-05-27T09:57:03.646Z,30.53
2018-05-27T10:03:08.758Z,30.53
2018-05-27T10:09:13.120Z,30.22
2018-05-27T10:15:17.468Z,29.50
2018-05-27T10:21:23.441Z,29.57
2018-05-27T10:27:27.791Z,30.21
2018-05-27T10:33:32.174Z,31.00
2018-05-27T10:39:36.513Z,31.77
2018-05-27T10:45:41.624Z,32.63
2018-05-27T10:51:45.932Z,32.82
2018-05-27T10:57:51.095Z,32.88
2018-05-27T11:03:55.445Z,32.53
2018-05-27T11:10:00.878Z,33.16
2018-05-27T11:16:05.184Z,33.30
2018-05-27T11:22:10.330Z,32.69
2018-05-27T11:28:14.713Z,32.91
2018-05-27T11:34:19.100Z,34.01
2018-05-27T11:40:23.844Z,33.80
2018-05-27T11:46:28.235Z,33.82
2018-05-27T11:52:32.601Z,34.07
2018-05-27T11:58:36.907Z,34.18
2018-05-27T12:04:41.286Z,35.35
2018-05-27T12:10:45.737Z,34.88
2018-05-27T12:16:50.383Z,35.73
2018-05-27T12:22:54.916Z,36.73
2018-05-27T12:28:59.281Z,37.23
2018-05-27T12:35:03.648Z,37.65
2018-05-27T12:41:07.992Z,37.23
2018-05-27T12:47:13.102Z,37.23
2018-05-27T12:53:17.439Z,38.14
2018-05-27T12:59:21.870Z,38.83
2018-05-27T13:05:26.362Z,38.87
2018-05-27T13:11:30.738Z,39.05
2018-05-27T13:17:35.088Z,36.53
2018-05-27T13:23:39.429Z,34.39
2018-05-27T13:29:44.540Z,35.17
2018-05-27T13:35:50.277Z,34.20
2018-05-27T13:41:54.845Z,35.63
2018-05-27T13:47:59.221Z,35.53
2018-05-27T13:54:03.553Z,35.32
2018-05-27T14:00:07.902Z,35.99
2018-05-27T14:06:12.262Z,35.92
2018-05-27T14:12:16.605Z,36.23
2018-05-27T14:18:21.133Z,35.66
2018-05-27T14:24:25.669Z,36.34
2018-05-27T14:30:30.020Z,36.18
2018-05-27T14:36:34.384Z,36.76
2018-05-27T14:42:38.726Z,36.70
2018-05-27T14:48:43.065Z,36.79
2018-05-27T14:54:47.452Z,35.91
2018-05-27T15:00:52.584Z,34.95
2018-05-27T15:06:56.928Z,34.77
2018-05-27T15:13:01.239Z,34.66
2018-05-27T15:19:05.660Z,33.98
2018-05-27T15:25:10.008Z,33.29
2018-05-27T15:31:14.367Z,31.97
2018-05-27T15:37:19.499Z,30.92
2018-05-27T15:43:23.992Z,29.65
2018-05-27T15:49:28.397Z,29.12
2018-05-27T15:55:32.748Z,28.21
2018-05-27T16:01:37.060Z,26.77
2018-05-27T16:07:41.452Z,25.52
2018-05-27T16:13:46.525Z,23.78
2018-05-27T16:19:51.520Z,22.85
2018-05-27T16:25:56.677Z,22.29
2018-05-27T16:32:01.075Z,21.81
2018-05-27T16:38:05.425Z,21.84
2018-05-27T16:44:09.786Z,21.83
2018-05-27T16:50:14.148Z,21.84
2018-05-27T16:56:18.535Z,22.07
2018-05-27T17:02:23.948Z,21.66
2018-05-27T17:08:28.317Z,21.60
2018-05-27T17:14:32.819Z,21.53
2018-05-27T17:20:37.188Z,21.53
2018-05-27T17:26:41.879Z,21.26
2018-05-27T17:32:46.236Z,21.43
2018-05-27T17:38:50.865Z,21.21
2018-05-27T17:44:56.024Z,21.07
2018-05-27T17:51:00.369Z,21.28
2018-05-27T17:57:04.828Z,21.69
2018-05-27T18:03:09.178Z,21.64
2018-05-27T18:09:14.281Z,21.70
2018-05-27T18:15:18.636Z,21.80
2018-05-27T18:21:24.449Z,21.42
2018-05-27T18:27:28.800Z,20.94
2018-05-27T18:33:33.208Z,20.83
2018-05-27T18:39:38.331Z,20.92
2018-05-27T18:45:42.685Z,20.96
2018-05-27T18:51:47.036Z,20.59
2018-05-27T18:57:52.995Z,20.24
2018-05-27T19:03:57.487Z,20.26
2018-05-27T19:10:01.842Z,19.75
2018-05-27T19:16:06.199Z,19.56
2018-05-27T19:22:10.561Z,19.43
2018-05-27T19:28:15.718Z,19.05
2018-05-27T19:34:20.262Z,18.85
2018-05-27T19:40:25.941Z,19.04
2018-05-27T19:46:31.061Z,18.74
2018-05-27T19:52:35.472Z,18.61
2018-05-27T19:58:39.798Z,18.73
2018-05-27T20:04:44.188Z,18.41
2018-05-27T20:10:48.556Z,18.69
2018-05-27T20:16:53.293Z,18.45
2018-05-27T20:22:57.861Z,18.59
2018-05-27T20:29:02.252Z,18.27
2018-05-27T20:35:07.370Z,18.44
2018-05-27T20:41:11.750Z,18.49
2018-05-27T20:47:16.097Z,18.38
2018-05-27T20:53:21.987Z,18.40
2018-05-27T20:59:26.332Z,18.35
2018-05-27T21:05:31.079Z,18.41
2018-05-27T21:11:36.196Z,18.44
2018-05-27T21:17:40.591Z,18.55
2018-05-27T21:23:44.937Z,18.62
2018-05-27T21:29:50.765Z,18.40
2018-05-27T21:35:55.576Z,18.32
2018-05-27T21:41:59.973Z,18.41
2018-05-27T21:48:04.386Z,18.26
2018-05-27T21:54:08.767Z,18.44
2018-05-27T22:00:13.118Z,18.51
2018-05-27T22:06:18.239Z,18.51
2018-05-27T22:12:22.773Z,18.66
2018-05-27T22:18:27.118Z,18.56
2018-05-27T22:24:31.528Z,18.54
2018-05-27T22:30:36.641Z,18.62
2018-05-27T22:36:41.004Z,18.67
2018-05-27T22:42:45.407Z,18.66
2018-05-27T22:48:50.143Z,18.55
2018-05-27T22:54:54.984Z,18.75
2018-05-27T23:00:59.429Z,18.77
2018-05-27T23:07:03.809Z,18.92
2018-05-27T23:13:08.176Z,18.71
2018-05-27T23:19:13.289Z,18.63
2018-05-27T23:25:17.643Z,18.78
2018-05-27T23:31:22.286Z,18.61
2018-05-27T23:37:26.732Z,18.90
2018-05-27T23:43:31.114Z,18.48
2018-05-27T23:49:35.457Z,18.54
2018-05-27T23:55:39.820Z,18.52
